Latest Areodrome Forecast (TAF)

TAF VMMC 172302Z 1800/1906 35012KT 8000 FEW035 TEMPO 1810/1818 36018G28KT=

Decoded TAF in plain language
Contents of Report Code Information
Report Type TAF Aerodrome Forecasts
Location VMMC Macao, China
Issuing Time 172302Z 17/11/2019 23:02 UTC
Period of Validity of Forecast 1800/1906 Between 18th 00:00 UTC and 19th 06:00 UTC
Surface Wind Direction and Speed 35012KT mean direction 350 degrees, speed 12 knots
Visibility 8000 8 kilometres
Weather    
Cloud FEW035 amount 1-2 oktas, base 3500 feet
Expected Significant ChangesTEMPO 1810/1818 36018G28KTtemporarily between 18th 10:00 UTC and 18th 18:00 UTC
wind: mean direction 360 degrees, speed 18 knots; gust 28 knots

OTHER INTERNATIONAL AIRPORTS:
Weather Forecast (TAF)   Weather Report (METAR)